sensor_id;sensor_type;location;lat;lon;timestamp;pressure;altitude;pressure_sealevel;temperature
76394;BMP180;65216;51.090;-115.352;2023-02-11T00:01:33;86711.20;;;21.40
76394;BMP180;65216;51.090;-115.352;2023-02-11T00:04:04;86708.00;;;21.40
76394;BMP180;65216;51.090;-115.352;2023-02-11T00:06:35;86699.00;;;21.40
76394;BMP180;65216;51.090;-115.352;2023-02-11T00:09:06;86705.00;;;21.40
76394;BMP180;65216;51.090;-115.352;2023-02-11T00:11:39;86700.40;;;21.40
76394;BMP180;65216;51.090;-115.352;2023-02-11T00:14:07;86695.80;;;21.40
76394;BMP180;65216;51.090;-115.352;2023-02-11T00:16:35;86693.40;;;21.40
76394;BMP180;65216;51.090;-115.352;2023-02-11T00:19:06;86698.00;;;21.38
76394;BMP180;65216;51.090;-115.352;2023-02-11T00:21:36;86706.00;;;21.40
76394;BMP180;65216;51.090;-115.352;2023-02-11T00:24:06;86720.00;;;21.40
76394;BMP180;65216;51.090;-115.352;2023-02-11T00:26:37;86700.60;;;21.40
76394;BMP180;65216;51.090;-115.352;2023-02-11T00:29:04;86715.80;;;21.40
76394;BMP180;65216;51.090;-115.352;2023-02-11T00:31:33;86697.60;;;21.40
76394;BMP180;65216;51.090;-115.352;2023-02-11T00:34:01;86693.20;;;21.40
76394;BMP180;65216;51.090;-115.352;2023-02-11T00:36:29;86706.20;;;21.38
76394;BMP180;65216;51.090;-115.352;2023-02-11T00:38:58;86717.80;;;21.36
76394;BMP180;65216;51.090;-115.352;2023-02-11T00:41:26;86709.20;;;21.34
76394;BMP180;65216;51.090;-115.352;2023-02-11T00:43:53;86718.40;;;21.30
76394;BMP180;65216;51.090;-115.352;2023-02-11T00:46:21;86719.40;;;21.30
76394;BMP180;65216;51.090;-115.352;2023-02-11T00:48:49;86718.20;;;21.30
76394;BMP180;65216;51.090;-115.352;2023-02-11T00:51:21;86719.60;;;21.32
76394;BMP180;65216;51.090;-115.352;2023-02-11T00:53:48;86724.60;;;21.30
76394;BMP180;65216;51.090;-115.352;2023-02-11T00:56:16;86727.60;;;21.30
76394;BMP180;65216;51.090;-115.352;2023-02-11T00:58:43;86725.00;;;21.30
76394;BMP180;65216;51.090;-115.352;2023-02-11T01:01:11;86721.40;;;21.30
76394;BMP180;65216;51.090;-115.352;2023-02-11T01:03:40;86735.20;;;21.30
76394;BMP180;65216;51.090;-115.352;2023-02-11T01:06:09;86725.20;;;21.30
76394;BMP180;65216;51.090;-115.352;2023-02-11T01:08:39;86738.80;;;21.30
76394;BMP180;65216;51.090;-115.352;2023-02-11T01:11:15;86733.80;;;21.30
76394;BMP180;65216;51.090;-115.352;2023-02-11T01:13:47;86747.60;;;21.30
76394;BMP180;65216;51.090;-115.352;2023-02-11T01:16:16;86755.20;;;21.30
76394;BMP180;65216;51.090;-115.352;2023-02-11T01:18:44;86756.20;;;21.30
76394;BMP180;65216;51.090;-115.352;2023-02-11T01:21:14;86754.40;;;21.30
76394;BMP180;65216;51.090;-115.352;2023-02-11T01:23:42;86751.40;;;21.30
76394;BMP180;65216;51.090;-115.352;2023-02-11T01:26:09;86749.80;;;21.22
76394;BMP180;65216;51.090;-115.352;2023-02-11T01:28:42;86753.40;;;21.20
76394;BMP180;65216;51.090;-115.352;2023-02-11T01:31:09;86752.00;;;21.20
76394;BMP180;65216;51.090;-115.352;2023-02-11T01:33:36;86749.80;;;21.20
76394;BMP180;65216;51.090;-115.352;2023-02-11T01:36:07;86758.00;;;21.20
76394;BMP180;65216;51.090;-115.352;2023-02-11T01:38:36;86755.40;;;21.20
76394;BMP180;65216;51.090;-115.352;2023-02-11T01:41:13;86761.60;;;21.20
76394;BMP180;65216;51.090;-115.352;2023-02-11T01:43:47;86759.20;;;21.20
76394;BMP180;65216;51.090;-115.352;2023-02-11T01:46:37;86756.60;;;21.20
76394;BMP180;65216;51.090;-115.352;2023-02-11T01:49:05;86757.20;;;21.20
76394;BMP180;65216;51.090;-115.352;2023-02-11T01:51:42;86766.40;;;21.20
76394;BMP180;65216;51.090;-115.352;2023-02-11T01:54:14;86763.00;;;21.20
76394;BMP180;65216;51.090;-115.352;2023-02-11T01:57:03;86768.80;;;21.20
76394;BMP180;65216;51.090;-115.352;2023-02-11T02:00:20;86759.20;;;21.20
76394;BMP180;65216;51.090;-115.352;2023-02-11T02:03:04;86771.40;;;21.20
76394;BMP180;65216;51.090;-115.352;2023-02-11T02:05:59;86775.40;;;21.20
76394;BMP180;65216;51.090;-115.352;2023-02-11T02:09:02;86764.80;;;21.20
76394;BMP180;65216;51.090;-115.352;2023-02-11T02:11:32;86778.00;;;21.20
76394;BMP180;65216;51.090;-115.352;2023-02-11T02:14:04;86785.40;;;21.20
76394;BMP180;65216;51.090;-115.352;2023-02-11T02:16:41;86769.20;;;21.20
76394;BMP180;65216;51.090;-115.352;2023-02-11T02:20:00;86782.80;;;21.20
76394;BMP180;65216;51.090;-115.352;2023-02-11T02:26:00;86791.60;;;21.20
76394;BMP180;65216;51.090;-115.352;2023-02-11T02:32:48;86783.80;;;21.20
76394;BMP180;65216;51.090;-115.352;2023-02-11T02:41:21;86763.60;;;21.20
76394;BMP180;65216;51.090;-115.352;2023-02-11T02:43:50;86763.00;;;21.20
76394;BMP180;65216;51.090;-115.352;2023-02-11T02:46:26;86751.40;;;21.20
76394;BMP180;65216;51.090;-115.352;2023-02-11T02:48:58;86760.20;;;21.20
76394;BMP180;65216;51.090;-115.352;2023-02-11T02:52:12;86754.00;;;21.20
76394;BMP180;65216;51.090;-115.352;2023-02-11T02:58:15;86768.00;;;21.18
76394;BMP180;65216;51.090;-115.352;2023-02-11T03:01:02;86755.00;;;21.20
76394;BMP180;65216;51.090;-115.352;2023-02-11T03:04:16;86761.20;;;21.20
76394;BMP180;65216;51.090;-115.352;2023-02-11T03:07:02;86746.00;;;21.20
76394;BMP180;65216;51.090;-115.352;2023-02-11T03:09:57;86761.20;;;21.20
76394;BMP180;65216;51.090;-115.352;2023-02-11T03:12:29;86750.20;;;21.12
76394;BMP180;65216;51.090;-115.352;2023-02-11T03:15:02;86760.20;;;21.16
76394;BMP180;65216;51.090;-115.352;2023-02-11T03:17:34;86752.00;;;21.14
76394;BMP180;65216;51.090;-115.352;2023-02-11T03:20:09;86763.00;;;21.18
76394;BMP180;65216;51.090;-115.352;2023-02-11T03:23:00;86764.80;;;21.16
76394;BMP180;65216;51.090;-115.352;2023-02-11T03:25:49;86762.40;;;21.20
76394;BMP180;65216;51.090;-115.352;2023-02-11T03:28:41;86769.00;;;21.20
76394;BMP180;65216;51.090;-115.352;2023-02-11T03:31:27;86765.20;;;21.18
76394;BMP180;65216;51.090;-115.352;2023-02-11T03:34:06;86756.20;;;21.18
76394;BMP180;65216;51.090;-115.352;2023-02-11T03:36:43;86766.60;;;21.16
76394;BMP180;65216;51.090;-115.352;2023-02-11T03:39:20;86759.80;;;21.12
76394;BMP180;65216;51.090;-115.352;2023-02-11T03:41:55;86766.80;;;21.10
76394;BMP180;65216;51.090;-115.352;2023-02-11T03:44:29;86773.60;;;21.10
76394;BMP180;65216;51.090;-115.352;2023-02-11T03:46:58;86757.80;;;21.10
76394;BMP180;65216;51.090;-115.352;2023-02-11T03:49:27;86758.00;;;21.10
76394;BMP180;65216;51.090;-115.352;2023-02-11T03:51:56;86764.60;;;21.10
76394;BMP180;65216;51.090;-115.352;2023-02-11T03:54:31;86765.60;;;21.10
76394;BMP180;65216;51.090;-115.352;2023-02-11T03:57:02;86761.20;;;21.10
76394;BMP180;65216;51.090;-115.352;2023-02-11T03:59:30;86774.20;;;21.10
76394;BMP180;65216;51.090;-115.352;2023-02-11T04:02:03;86781.60;;;21.10
76394;BMP180;65216;51.090;-115.352;2023-02-11T04:04:30;86778.20;;;21.10
76394;BMP180;65216;51.090;-115.352;2023-02-11T04:06:58;86786.20;;;21.10
76394;BMP180;65216;51.090;-115.352;2023-02-11T04:09:25;86781.20;;;21.10
76394;BMP180;65216;51.090;-115.352;2023-02-11T04:11:55;86784.80;;;21.10
76394;BMP180;65216;51.090;-115.352;2023-02-11T04:14:22;86781.20;;;21.10
76394;BMP180;65216;51.090;-115.352;2023-02-11T04:16:50;86785.80;;;21.10
76394;BMP180;65216;51.090;-115.352;2023-02-11T04:19:17;86781.20;;;21.10
76394;BMP180;65216;51.090;-115.352;2023-02-11T04:21:45;86788.00;;;21.10
76394;BMP180;65216;51.090;-115.352;2023-02-11T04:24:12;86779.00;;;21.10
76394;BMP180;65216;51.090;-115.352;2023-02-11T04:26:40;86798.80;;;21.10
76394;BMP180;65216;51.090;-115.352;2023-02-11T04:29:07;86790.20;;;21.10
76394;BMP180;65216;51.090;-115.352;2023-02-11T04:31:35;86794.20;;;21.10
76394;BMP180;65216;51.090;-115.352;2023-02-11T04:34:02;86795.80;;;21.10
76394;BMP180;65216;51.090;-115.352;2023-02-11T04:36:29;86799.60;;;21.10
76394;BMP180;65216;51.090;-115.352;2023-02-11T04:38:57;86806.00;;;21.08
76394;BMP180;65216;51.090;-115.352;2023-02-11T04:41:24;86815.60;;;21.04
76394;BMP180;65216;51.090;-115.352;2023-02-11T04:43:52;86806.60;;;21.02
76394;BMP180;65216;51.090;-115.352;2023-02-11T04:46:19;86815.80;;;21.00
76394;BMP180;65216;51.090;-115.352;2023-02-11T04:48:47;86821.00;;;21.00
76394;BMP180;65216;51.090;-115.352;2023-02-11T04:51:14;86813.00;;;21.00
76394;BMP180;65216;51.090;-115.352;2023-02-11T04:53:41;86820.80;;;21.00
76394;BMP180;65216;51.090;-115.352;2023-02-11T04:56:12;86804.20;;;21.00
76394;BMP180;65216;51.090;-115.352;2023-02-11T04:58:39;86824.40;;;21.00
76394;BMP180;65216;51.090;-115.352;2023-02-11T05:01:14;86812.60;;;21.00
76394;BMP180;65216;51.090;-115.352;2023-02-11T05:03:44;86818.00;;;21.00
76394;BMP180;65216;51.090;-115.352;2023-02-11T05:06:16;86814.40;;;20.98
76394;BMP180;65216;51.090;-115.352;2023-02-11T05:08:47;86801.80;;;20.90
76394;BMP180;65216;51.090;-115.352;2023-02-11T05:11:21;86801.60;;;20.90
76394;BMP180;65216;51.090;-115.352;2023-02-11T05:13:49;86809.20;;;20.90
76394;BMP180;65216;51.090;-115.352;2023-02-11T05:16:17;86802.20;;;20.90
76394;BMP180;65216;51.090;-115.352;2023-02-11T05:18:45;86799.60;;;20.90
76394;BMP180;65216;51.090;-115.352;2023-02-11T05:21:21;86806.60;;;20.90
76394;BMP180;65216;51.090;-115.352;2023-02-11T05:23:48;86816.20;;;20.90
76394;BMP180;65216;51.090;-115.352;2023-02-11T05:26:21;86811.40;;;20.90
76394;BMP180;65216;51.090;-115.352;2023-02-11T05:28:49;86815.80;;;20.90
76394;BMP180;65216;51.090;-115.352;2023-02-11T05:31:19;86815.00;;;20.90
76394;BMP180;65216;51.090;-115.352;2023-02-11T05:33:46;86809.20;;;20.82
76394;BMP180;65216;51.090;-115.352;2023-02-11T05:36:16;86811.20;;;20.82
76394;BMP180;65216;51.090;-115.352;2023-02-11T05:38:43;86802.00;;;20.80
76394;BMP180;65216;51.090;-115.352;2023-02-11T05:41:12;86816.00;;;20.80
76394;BMP180;65216;51.090;-115.352;2023-02-11T05:43:39;86808.40;;;20.80
76394;BMP180;65216;51.090;-115.352;2023-02-11T05:46:07;86825.60;;;20.80
76394;BMP180;65216;51.090;-115.352;2023-02-11T05:48:34;86822.40;;;20.80
76394;BMP180;65216;51.090;-115.352;2023-02-11T05:51:02;86822.80;;;20.80
76394;BMP180;65216;51.090;-115.352;2023-02-11T05:53:29;86824.80;;;20.80
76394;BMP180;65216;51.090;-115.352;2023-02-11T05:55:56;86833.60;;;20.80
76394;BMP180;65216;51.090;-115.352;2023-02-11T05:58:27;86843.80;;;20.80
76394;BMP180;65216;51.090;-115.352;2023-02-11T06:00:55;86832.80;;;20.80
76394;BMP180;65216;51.090;-115.352;2023-02-11T06:03:22;86844.40;;;20.80
76394;BMP180;65216;51.090;-115.352;2023-02-11T06:05:50;86838.40;;;20.80
76394;BMP180;65216;51.090;-115.352;2023-02-11T06:08:17;86849.40;;;20.80
76394;BMP180;65216;51.090;-115.352;2023-02-11T06:10:48;86839.00;;;20.80
76394;BMP180;65216;51.090;-115.352;2023-02-11T06:13:15;86849.20;;;20.80
76394;BMP180;65216;51.090;-115.352;2023-02-11T06:15:44;86846.40;;;20.70
76394;BMP180;65216;51.090;-115.352;2023-02-11T06:18:11;86837.20;;;20.70
76394;BMP180;65216;51.090;-115.352;2023-02-11T06:20:39;86841.80;;;20.70
76394;BMP180;65216;51.090;-115.352;2023-02-11T06:23:09;86852.00;;;20.70
76394;BMP180;65216;51.090;-115.352;2023-02-11T06:25:37;86843.80;;;20.70
76394;BMP180;65216;51.090;-115.352;2023-02-11T06:28:04;86845.40;;;20.70
76394;BMP180;65216;51.090;-115.352;2023-02-11T06:30:32;86846.40;;;20.70
76394;BMP180;65216;51.090;-115.352;2023-02-11T06:33:02;86844.00;;;20.70
76394;BMP180;65216;51.090;-115.352;2023-02-11T06:35:30;86843.20;;;20.70
76394;BMP180;65216;51.090;-115.352;2023-02-11T06:37:59;86847.40;;;20.70
76394;BMP180;65216;51.090;-115.352;2023-02-11T06:40:26;86845.40;;;20.70
76394;BMP180;65216;51.090;-115.352;2023-02-11T06:42:54;86847.40;;;20.70
76394;BMP180;65216;51.090;-115.352;2023-02-11T06:45:21;86851.40;;;20.70
76394;BMP180;65216;51.090;-115.352;2023-02-11T06:47:52;86854.20;;;20.70
76394;BMP180;65216;51.090;-115.352;2023-02-11T06:50:26;86843.80;;;20.70
76394;BMP180;65216;51.090;-115.352;2023-02-11T06:52:56;86846.80;;;20.70
76394;BMP180;65216;51.090;-115.352;2023-02-11T06:55:24;86855.40;;;20.70
76394;BMP180;65216;51.090;-115.352;2023-02-11T06:57:52;86854.40;;;20.70
76394;BMP180;65216;51.090;-115.352;2023-02-11T07:00:19;86850.60;;;20.70
76394;BMP180;65216;51.090;-115.352;2023-02-11T07:02:49;86847.00;;;20.70
76394;BMP180;65216;51.090;-115.352;2023-02-11T07:05:17;86849.60;;;20.70
76394;BMP180;65216;51.090;-115.352;2023-02-11T07:07:47;86855.60;;;20.70
76394;BMP180;65216;51.090;-115.352;2023-02-11T07:10:14;86862.20;;;20.70
76394;BMP180;65216;51.090;-115.352;2023-02-11T07:12:45;86865.60;;;20.70
76394;BMP180;65216;51.090;-115.352;2023-02-11T07:15:12;86860.00;;;20.70
76394;BMP180;65216;51.090;-115.352;2023-02-11T07:17:40;86863.60;;;20.70
76394;BMP180;65216;51.090;-115.352;2023-02-11T07:20:07;86867.20;;;20.70
76394;BMP180;65216;51.090;-115.352;2023-02-11T07:22:37;86865.60;;;20.70
76394;BMP180;65216;51.090;-115.352;2023-02-11T07:25:15;86873.20;;;20.70
76394;BMP180;65216;51.090;-115.352;2023-02-11T07:27:43;86875.80;;;20.70
76394;BMP180;65216;51.090;-115.352;2023-02-11T07:30:20;86880.20;;;20.70
76394;BMP180;65216;51.090;-115.352;2023-02-11T07:32:49;86878.60;;;20.70
76394;BMP180;65216;51.090;-115.352;2023-02-11T07:35:16;86881.20;;;20.70
76394;BMP180;65216;51.090;-115.352;2023-02-11T07:37:45;86887.80;;;20.70
76394;BMP180;65216;51.090;-115.352;2023-02-11T07:40:12;86886.60;;;20.70
76394;BMP180;65216;51.090;-115.352;2023-02-11T07:42:39;86887.80;;;20.70
76394;BMP180;65216;51.090;-115.352;2023-02-11T07:45:17;86882.40;;;20.70
76394;BMP180;65216;51.090;-115.352;2023-02-11T07:47:44;86893.80;;;20.70
76394;BMP180;65216;51.090;-115.352;2023-02-11T07:50:12;86892.80;;;20.70
76394;BMP180;65216;51.090;-115.352;2023-02-11T07:52:40;86893.80;;;20.70
76394;BMP180;65216;51.090;-115.352;2023-02-11T07:55:08;86895.00;;;20.70
76394;BMP180;65216;51.090;-115.352;2023-02-11T07:57:36;86894.80;;;20.70
76394;BMP180;65216;51.090;-115.352;2023-02-11T08:00:05;86900.20;;;20.70
76394;BMP180;65216;51.090;-115.352;2023-02-11T08:02:38;86890.40;;;20.70
76394;BMP180;65216;51.090;-115.352;2023-02-11T08:05:08;86886.80;;;20.70
76394;BMP180;65216;51.090;-115.352;2023-02-11T08:07:37;86879.80;;;20.68
76394;BMP180;65216;51.090;-115.352;2023-02-11T08:10:06;86884.40;;;20.68
76394;BMP180;65216;51.090;-115.352;2023-02-11T08:12:34;86884.40;;;20.70
76394;BMP180;65216;51.090;-115.352;2023-02-11T08:15:02;86883.80;;;20.64
76394;BMP180;65216;51.090;-115.352;2023-02-11T08:17:34;86879.80;;;20.64
76394;BMP180;65216;51.090;-115.352;2023-02-11T08:20:02;86882.00;;;20.62
76394;BMP180;65216;51.090;-115.352;2023-02-11T08:22:34;86887.80;;;20.62
76394;BMP180;65216;51.090;-115.352;2023-02-11T08:25:08;86886.60;;;20.60
76394;BMP180;65216;51.090;-115.352;2023-02-11T08:27:38;86894.80;;;20.60
76394;BMP180;65216;51.090;-115.352;2023-02-11T08:30:06;86898.20;;;20.60
76394;BMP180;65216;51.090;-115.352;2023-02-11T08:32:34;86896.40;;;20.60
76394;BMP180;65216;51.090;-115.352;2023-02-11T08:35:02;86887.20;;;20.60
76394;BMP180;65216;51.090;-115.352;2023-02-11T08:37:29;86879.00;;;20.60
76394;BMP180;65216;51.090;-115.352;2023-02-11T08:40:00;86875.40;;;20.60
76394;BMP180;65216;51.090;-115.352;2023-02-11T08:42:27;86873.80;;;20.60
76394;BMP180;65216;51.090;-115.352;2023-02-11T08:44:57;86877.60;;;20.60
76394;BMP180;65216;51.090;-115.352;2023-02-11T08:47:29;86882.60;;;20.60
76394;BMP180;65216;51.090;-115.352;2023-02-11T08:49:56;86882.80;;;20.60
76394;BMP180;65216;51.090;-115.352;2023-02-11T08:52:24;86884.00;;;20.60
76394;BMP180;65216;51.090;-115.352;2023-02-11T08:54:51;86882.20;;;20.60
76394;BMP180;65216;51.090;-115.352;2023-02-11T08:57:19;86878.20;;;20.60
76394;BMP180;65216;51.090;-115.352;2023-02-11T08:59:46;86879.80;;;20.60
76394;BMP180;65216;51.090;-115.352;2023-02-11T09:02:17;86875.00;;;20.60
76394;BMP180;65216;51.090;-115.352;2023-02-11T09:04:44;86882.80;;;20.60
76394;BMP180;65216;51.090;-115.352;2023-02-11T09:07:11;86884.80;;;20.60
76394;BMP180;65216;51.090;-115.352;2023-02-11T09:09:39;86888.40;;;20.60
76394;BMP180;65216;51.090;-115.352;2023-02-11T09:12:06;86886.80;;;20.60
76394;BMP180;65216;51.090;-115.352;2023-02-11T09:14:34;86892.40;;;20.60
76394;BMP180;65216;51.090;-115.352;2023-02-11T09:17:07;86897.80;;;20.60
76394;BMP180;65216;51.090;-115.352;2023-02-11T09:19:37;86894.80;;;20.60
76394;BMP180;65216;51.090;-115.352;2023-02-11T09:22:05;86897.40;;;20.60
76394;BMP180;65216;51.090;-115.352;2023-02-11T09:24:32;86897.00;;;20.60
76394;BMP180;65216;51.090;-115.352;2023-02-11T09:27:02;86896.40;;;20.60
76394;BMP180;65216;51.090;-115.352;2023-02-11T09:29:32;86886.20;;;20.60
76394;BMP180;65216;51.090;-115.352;2023-02-11T09:32:00;86885.00;;;20.60
76394;BMP180;65216;51.090;-115.352;2023-02-11T09:34:27;86890.40;;;20.60
76394;BMP180;65216;51.090;-115.352;2023-02-11T09:36:55;86896.00;;;20.60
76394;BMP180;65216;51.090;-115.352;2023-02-11T09:39:25;86898.20;;;20.60
76394;BMP180;65216;51.090;-115.352;2023-02-11T09:44:46;86890.40;;;20.58
76394;BMP180;65216;51.090;-115.352;2023-02-11T09:47:38;86892.20;;;20.50
76394;BMP180;65216;51.090;-115.352;2023-02-11T09:50:39;86903.20;;;20.56
76394;BMP180;65216;51.090;-115.352;2023-02-11T09:53:27;86908.80;;;20.52
76394;BMP180;65216;51.090;-115.352;2023-02-11T09:55:59;86910.60;;;20.50
76394;BMP180;65216;51.090;-115.352;2023-02-11T09:58:32;86908.40;;;20.50
76394;BMP180;65216;51.090;-115.352;2023-02-11T10:07:02;86912.00;;;20.50
76394;BMP180;65216;51.090;-115.352;2023-02-11T10:13:05;86894.40;;;20.50
76394;BMP180;65216;51.090;-115.352;2023-02-11T10:15:47;86906.80;;;20.50
76394;BMP180;65216;51.090;-115.352;2023-02-11T10:18:50;86898.60;;;20.50
76394;BMP180;65216;51.090;-115.352;2023-02-11T10:21:55;86910.20;;;20.50
76394;BMP180;65216;51.090;-115.352;2023-02-11T10:24:30;86897.80;;;20.50
76394;BMP180;65216;51.090;-115.352;2023-02-11T10:27:15;86902.20;;;20.50
76394;BMP180;65216;51.090;-115.352;2023-02-11T10:30:00;86902.00;;;20.50
76394;BMP180;65216;51.090;-115.352;2023-02-11T10:35:22;86913.00;;;20.50
76394;BMP180;65216;51.090;-115.352;2023-02-11T10:37:49;86915.40;;;20.50
76394;BMP180;65216;51.090;-115.352;2023-02-11T10:40:21;86914.20;;;20.50
76394;BMP180;65216;51.090;-115.352;2023-02-11T10:42:56;86912.40;;;20.50
76394;BMP180;65216;51.090;-115.352;2023-02-11T10:46:02;86917.60;;;20.50
76394;BMP180;65216;51.090;-115.352;2023-02-11T10:48:41;86918.20;;;20.50
76394;BMP180;65216;51.090;-115.352;2023-02-11T10:51:32;86928.40;;;20.50
76394;BMP180;65216;51.090;-115.352;2023-02-11T10:56:44;86926.60;;;20.50
76394;BMP180;65216;51.090;-115.352;2023-02-11T10:59:33;86917.60;;;20.50
76394;BMP180;65216;51.090;-115.352;2023-02-11T11:02:30;86927.40;;;20.50
76394;BMP180;65216;51.090;-115.352;2023-02-11T11:05:18;86927.40;;;20.50
76394;BMP180;65216;51.090;-115.352;2023-02-11T11:08:06;86912.80;;;20.50
76394;BMP180;65216;51.090;-115.352;2023-02-11T11:10:44;86914.00;;;20.50
76394;BMP180;65216;51.090;-115.352;2023-02-11T11:13:35;86915.40;;;20.50
76394;BMP180;65216;51.090;-115.352;2023-02-11T11:19:22;86907.20;;;20.50
76394;BMP180;65216;51.090;-115.352;2023-02-11T11:21:54;86900.80;;;20.50
76394;BMP180;65216;51.090;-115.352;2023-02-11T11:27:02;86904.40;;;20.50
76394;BMP180;65216;51.090;-115.352;2023-02-11T11:29:44;86896.80;;;20.50
76394;BMP180;65216;51.090;-115.352;2023-02-11T11:32:31;86890.60;;;20.50
76394;BMP180;65216;51.090;-115.352;2023-02-11T11:35:16;86887.40;;;20.50
76394;BMP180;65216;51.090;-115.352;2023-02-11T11:37:56;86889.80;;;20.42
76394;BMP180;65216;51.090;-115.352;2023-02-11T11:40:32;86882.80;;;20.40
76394;BMP180;65216;51.090;-115.352;2023-02-11T11:45:55;86898.60;;;20.40
76394;BMP180;65216;51.090;-115.352;2023-02-11T11:48:46;86891.80;;;20.40
76394;BMP180;65216;51.090;-115.352;2023-02-11T11:51:16;86891.00;;;20.40
76394;BMP180;65216;51.090;-115.352;2023-02-11T11:54:08;86891.40;;;20.38
76394;BMP180;65216;51.090;-115.352;2023-02-11T11:56:54;86898.40;;;20.34
76394;BMP180;65216;51.090;-115.352;2023-02-11T11:59:22;86900.20;;;20.30
76394;BMP180;65216;51.090;-115.352;2023-02-11T12:02:10;86891.40;;;20.30
76394;BMP180;65216;51.090;-115.352;2023-02-11T12:08:17;86890.80;;;20.30
76394;BMP180;65216;51.090;-115.352;2023-02-11T12:16:51;86891.20;;;20.20
76394;BMP180;65216;51.090;-115.352;2023-02-11T12:19:53;86888.60;;;20.20
76394;BMP180;65216;51.090;-115.352;2023-02-11T12:25:27;86889.40;;;20.20
76394;BMP180;65216;51.090;-115.352;2023-02-11T12:28:13;86888.60;;;20.20
76394;BMP180;65216;51.090;-115.352;2023-02-11T12:33:54;86886.00;;;20.10
76394;BMP180;65216;51.090;-115.352;2023-02-11T12:46:32;86890.00;;;20.10
76394;BMP180;65216;51.090;-115.352;2023-02-11T12:52:20;86892.60;;;20.10
76394;BMP180;65216;51.090;-115.352;2023-02-11T12:55:27;86884.80;;;20.10
76394;BMP180;65216;51.090;-115.352;2023-02-11T12:57:58;86885.80;;;20.10
76394;BMP180;65216;51.090;-115.352;2023-02-11T13:00:54;86875.60;;;20.10
76394;BMP180;65216;51.090;-115.352;2023-02-11T13:03:42;86866.20;;;20.10
76394;BMP180;65216;51.090;-115.352;2023-02-11T13:06:28;86868.80;;;20.10
76394;BMP180;65216;51.090;-115.352;2023-02-11T13:09:05;86874.40;;;20.10
76394;BMP180;65216;51.090;-115.352;2023-02-11T13:11:47;86866.20;;;20.10
76394;BMP180;65216;51.090;-115.352;2023-02-11T13:14:44;86869.40;;;20.10
76394;BMP180;65216;51.090;-115.352;2023-02-11T13:17:29;86866.00;;;20.10
76394;BMP180;65216;51.090;-115.352;2023-02-11T13:20:41;86864.60;;;20.10
76394;BMP180;65216;51.090;-115.352;2023-02-11T13:30:24;86852.00;;;20.08
76394;BMP180;65216;51.090;-115.352;2023-02-11T13:38:23;86861.20;;;20.00
76394;BMP180;65216;51.090;-115.352;2023-02-11T13:41:15;86865.00;;;20.00
76394;BMP180;65216;51.090;-115.352;2023-02-11T13:43:44;86868.20;;;20.00
76394;BMP180;65216;51.090;-115.352;2023-02-11T13:46:23;86873.20;;;20.00
76394;BMP180;65216;51.090;-115.352;2023-02-11T13:48:53;86867.80;;;20.00
76394;BMP180;65216;51.090;-115.352;2023-02-11T13:51:39;86873.40;;;20.00
76394;BMP180;65216;51.090;-115.352;2023-02-11T13:54:26;86871.40;;;20.00
76394;BMP180;65216;51.090;-115.352;2023-02-11T14:15:20;86892.80;;;20.00
76394;BMP180;65216;51.090;-115.352;2023-02-11T14:17:48;86894.00;;;20.00
76394;BMP180;65216;51.090;-115.352;2023-02-11T14:20:41;86884.40;;;20.00
76394;BMP180;65216;51.090;-115.352;2023-02-11T14:23:23;86885.80;;;20.00
76394;BMP180;65216;51.090;-115.352;2023-02-11T14:29:41;86886.80;;;20.00
76394;BMP180;65216;51.090;-115.352;2023-02-11T14:32:28;86881.00;;;20.00
76394;BMP180;65216;51.090;-115.352;2023-02-11T14:35:42;86895.20;;;20.00
76394;BMP180;65216;51.090;-115.352;2023-02-11T14:38:44;86891.60;;;20.00
76394;BMP180;65216;51.090;-115.352;2023-02-11T14:41:30;86887.80;;;20.00
76394;BMP180;65216;51.090;-115.352;2023-02-11T14:44:07;86876.80;;;20.00
76394;BMP180;65216;51.090;-115.352;2023-02-11T14:46:45;86880.80;;;20.00
76394;BMP180;65216;51.090;-115.352;2023-02-11T14:49:32;86882.00;;;20.00
76394;BMP180;65216;51.090;-115.352;2023-02-11T14:52:35;86882.80;;;20.00
76394;BMP180;65216;51.090;-115.352;2023-02-11T14:58:28;86872.60;;;20.00
76394;BMP180;65216;51.090;-115.352;2023-02-11T15:01:21;86881.60;;;20.00
76394;BMP180;65216;51.090;-115.352;2023-02-11T15:03:49;86882.80;;;20.00
76394;BMP180;65216;51.090;-115.352;2023-02-11T15:06:33;86871.80;;;20.00
76394;BMP180;65216;51.090;-115.352;2023-02-11T15:11:55;86867.20;;;20.00
76394;BMP180;65216;51.090;-115.352;2023-02-11T15:14:29;86861.40;;;20.00
76394;BMP180;65216;51.090;-115.352;2023-02-11T15:17:01;86872.00;;;20.00
76394;BMP180;65216;51.090;-115.352;2023-02-11T15:19:38;86867.80;;;20.00
76394;BMP180;65216;51.090;-115.352;2023-02-11T15:22:22;86865.60;;;20.00
76394;BMP180;65216;51.090;-115.352;2023-02-11T15:25:14;86868.60;;;20.00
76394;BMP180;65216;51.090;-115.352;2023-02-11T15:27:46;86860.80;;;20.00
76394;BMP180;65216;51.090;-115.352;2023-02-11T15:33:00;86858.60;;;20.00
76394;BMP180;65216;51.090;-115.352;2023-02-11T15:35:39;86863.40;;;20.00
76394;BMP180;65216;51.090;-115.352;2023-02-11T15:38:08;86854.80;;;20.00
76394;BMP180;65216;51.090;-115.352;2023-02-11T15:40:37;86854.40;;;20.00
76394;BMP180;65216;51.090;-115.352;2023-02-11T15:43:06;86869.20;;;20.06
76394;BMP180;65216;51.090;-115.352;2023-02-11T15:46:00;86851.40;;;20.04
76394;BMP180;65216;51.090;-115.352;2023-02-11T15:51:35;86855.80;;;20.10
76394;BMP180;65216;51.090;-115.352;2023-02-11T15:54:15;86857.80;;;20.10
76394;BMP180;65216;51.090;-115.352;2023-02-11T15:56:52;86846.40;;;20.10
76394;BMP180;65216;51.090;-115.352;2023-02-11T15:59:40;86860.00;;;20.10
76394;BMP180;65216;51.090;-115.352;2023-02-11T16:02:30;86852.60;;;20.10
76394;BMP180;65216;51.090;-115.352;2023-02-11T16:05:06;86847.60;;;20.10
76394;BMP180;65216;51.090;-115.352;2023-02-11T16:07:45;86855.80;;;20.10
76394;BMP180;65216;51.090;-115.352;2023-02-11T16:15:47;86835.20;;;20.10
76394;BMP180;65216;51.090;-115.352;2023-02-11T16:18:32;86842.00;;;20.10